Terminal Aerodrome Forecast
Issued by NWS Mt. Holly, NJ

Home | Current Version | Previous Version | Text Only | Print | Product List | Glossary On
Versions: 1 2 3 4 5 6 7 8 9 10 11 12 13 14 15 16 17 18
000
FTUS41 KPHI 280521
TAFILG
TAF
KILG 280521Z 2806/0106 VRB03KT P6SM BKN090
     FM281800 17006KT P6SM BKN250
     FM282000 18008KT P6SM BKN090
     FM282300 18007KT P6SM OVC030
     FM010200 18005KT 4SM -SHRA BR OVC015
     FM010400 18006KT 2SM -SHRA BR OVC005=

USA.gov is the U.S. government's official web portal to all federal, state and local government web resources and services.